createdAt,value
2018-11-10T00:00:40.584Z,26.67
2018-11-10T00:02:45.001Z,24.40
2018-11-10T00:04:48.658Z,27.53
2018-11-10T00:06:52.289Z,28.07
2018-11-10T00:08:56.057Z,27.10
2018-11-10T00:10:59.810Z,28.10
2018-11-10T00:13:03.683Z,26.97
2018-11-10T00:15:09.283Z,28.10
2018-11-10T00:17:13.120Z,21.30
2018-11-10T00:19:16.794Z,28.53
2018-11-10T00:21:20.558Z,28.97
2018-11-10T00:23:24.352Z,29.40
2018-11-10T00:25:28.090Z,28.97
2018-11-10T00:27:32.437Z,28.77
2018-11-10T00:29:36.652Z,30.50
2018-11-10T00:31:40.390Z,29.33
2018-11-10T00:33:44.408Z,30.00
2018-11-10T00:35:48.125Z,29.57
2018-11-10T00:37:51.980Z,31.27
2018-11-10T00:39:55.809Z,30.67
2018-11-10T00:42:00.283Z,30.53
2018-11-10T00:44:04.113Z,32.67
2018-11-10T00:46:08.057Z,29.37
2018-11-10T00:48:11.876Z,31.20
2018-11-10T00:50:16.549Z,30.60
2018-11-10T00:52:20.305Z,29.90
2018-11-10T00:54:24.038Z,32.73
2018-11-10T00:56:28.784Z,28.30
2018-11-10T00:58:32.513Z,29.27
2018-11-10T01:00:36.942Z,28.37
2018-11-10T01:02:41.422Z,24.63
2018-11-10T01:04:45.211Z,25.20
2018-11-10T01:06:48.993Z,20.73
2018-11-10T01:08:52.735Z,24.90
2018-11-10T01:10:56.639Z,24.07
2018-11-10T01:13:00.394Z,24.27
2018-11-10T01:15:04.094Z,23.93
2018-11-10T01:17:07.930Z,23.70
2018-11-10T01:19:11.553Z,24.10
2018-11-10T01:21:15.429Z,26.23
2018-11-10T01:23:19.060Z,26.17
2018-11-10T01:25:23.657Z,26.00
2018-11-10T01:27:28.001Z,26.13
2018-11-10T01:29:31.737Z,25.67
2018-11-10T01:31:35.491Z,24.83
2018-11-10T01:33:39.438Z,21.97
2018-11-10T01:35:43.170Z,20.77
2018-11-10T01:37:46.944Z,20.63
2018-11-10T01:39:50.604Z,19.30
2018-11-10T01:41:54.329Z,19.27
2018-11-10T01:43:58.094Z,17.97
2018-11-10T01:46:01.939Z,18.53
2018-11-10T01:48:05.897Z,16.87
2018-11-10T01:50:10.594Z,18.57
2018-11-10T01:52:14.394Z,18.97
2018-11-10T01:54:18.477Z,18.40
2018-11-10T01:56:22.126Z,17.27
2018-11-10T01:58:25.817Z,15.83
2018-11-10T02:00:29.830Z,17.10
2018-11-10T02:02:33.560Z,17.37
2018-11-10T02:04:37.326Z,17.17
2018-11-10T02:06:41.136Z,16.87
2018-11-10T02:08:46.183Z,16.57
2018-11-10T02:10:49.994Z,15.57
2018-11-10T02:12:53.870Z,17.63
2018-11-10T02:14:57.585Z,17.43
2018-11-10T02:17:02.443Z,16.47
2018-11-10T02:19:06.649Z,21.03
2018-11-10T02:21:10.527Z,19.17
2018-11-10T02:23:14.282Z,20.10
2018-11-10T02:25:18.382Z,18.53
2018-11-10T02:27:23.145Z,19.97
2018-11-10T02:29:26.841Z,20.00
2018-11-10T02:31:30.775Z,22.90
2018-11-10T02:33:34.530Z,19.47
2018-11-10T02:35:38.342Z,20.57
2018-11-10T02:37:42.628Z,19.83
2018-11-10T02:39:46.373Z,19.70
2018-11-10T02:41:50.253Z,21.37
2018-11-10T02:43:53.934Z,18.83
2018-11-10T02:45:57.802Z,20.13
2018-11-10T02:48:01.825Z,20.33
2018-11-10T02:50:06.294Z,20.40
2018-11-10T02:52:10.071Z,20.00
2018-11-10T02:54:13.858Z,21.33
2018-11-10T02:56:17.558Z,20.83
2018-11-10T02:58:21.197Z,21.60
2018-11-10T03:00:24.921Z,22.10
2018-11-10T03:02:28.720Z,25.60
2018-11-10T03:04:32.473Z,22.83
2018-11-10T03:06:36.361Z,21.80
2018-11-10T03:08:39.982Z,23.00
2018-11-10T03:10:44.563Z,19.83
2018-11-10T03:12:48.397Z,19.67
2018-11-10T03:16:16.764Z,21.60
2018-11-10T03:18:20.416Z,18.87
2018-11-10T03:20:24.325Z,19.40
2018-11-10T03:22:28.090Z,17.03
2018-11-10T03:24:31.854Z,16.90
2018-11-10T03:26:35.595Z,16.83
2018-11-10T03:28:39.365Z,15.13
2018-11-10T03:30:43.045Z,15.87
2018-11-10T03:32:46.861Z,14.97
2018-11-10T03:34:51.561Z,15.13
2018-11-10T03:36:55.178Z,16.77
2018-11-10T03:38:58.785Z,15.40
2018-11-10T03:41:02.481Z,14.07
2018-11-10T03:43:06.909Z,14.23
2018-11-10T03:45:11.809Z,14.00
2018-11-10T03:47:15.614Z,13.40
2018-11-10T03:49:19.322Z,15.33
2018-11-10T03:51:23.014Z,15.10
2018-11-10T03:53:26.971Z,15.37
2018-11-10T03:55:30.773Z,14.30
2018-11-10T03:57:34.541Z,15.40
2018-11-10T03:59:38.536Z,14.00
2018-11-10T04:01:42.183Z,14.03
2018-11-10T04:03:45.879Z,13.13
2018-11-10T04:05:49.669Z,14.50
2018-11-10T04:07:53.884Z,14.53
2018-11-10T04:09:57.753Z,16.10
2018-11-10T04:12:02.552Z,14.73
2018-11-10T04:14:06.657Z,16.70
2018-11-10T04:16:11.364Z,17.80
2018-11-10T04:18:15.121Z,17.27
2018-11-10T04:20:18.957Z,17.43
2018-11-10T04:22:38.129Z,17.27
2018-11-10T04:24:41.810Z,20.13
2018-11-10T04:26:45.475Z,22.43
2018-11-10T04:28:50.045Z,20.17
2018-11-10T04:30:53.713Z,23.37
2018-11-10T04:32:57.587Z,24.37
2018-11-10T04:35:01.313Z,22.63
2018-11-10T04:37:05.061Z,24.13
2018-11-10T04:39:08.846Z,23.17
2018-11-10T04:41:12.622Z,28.73
2018-11-10T04:43:16.417Z,28.30
2018-11-10T04:45:20.202Z,29.30
2018-11-10T04:47:24.069Z,29.97
2018-11-10T04:49:27.849Z,29.20
2018-11-10T04:51:31.529Z,28.50
2018-11-10T04:53:35.367Z,31.27
2018-11-10T04:55:39.064Z,30.10
2018-11-10T04:57:42.725Z,31.53
2018-11-10T04:59:46.449Z,34.03
2018-11-10T05:01:50.246Z,28.70
2018-11-10T05:03:54.005Z,35.07
2018-11-10T05:05:58.517Z,31.37
2018-11-10T05:08:02.216Z,31.50
2018-11-10T05:10:07.134Z,35.33
2018-11-10T05:12:11.786Z,35.00
2018-11-10T05:14:15.575Z,26.83
2018-11-10T05:16:19.314Z,34.00
2018-11-10T05:18:23.267Z,34.67
2018-11-10T05:20:26.961Z,32.57
2018-11-10T05:22:30.742Z,29.83
2018-11-10T05:24:34.445Z,35.50
2018-11-10T05:26:38.413Z,34.13
2018-11-10T05:28:42.124Z,29.80
2018-11-10T05:30:46.557Z,34.77
2018-11-10T05:32:50.266Z,35.67
2018-11-10T05:34:53.954Z,34.60
2018-11-10T05:36:57.585Z,29.47
2018-11-10T05:39:01.262Z,32.47
2018-11-10T05:41:05.565Z,31.50
2018-11-10T05:43:09.206Z,26.70
2018-11-10T05:45:13.090Z,34.50
2018-11-10T05:47:16.744Z,34.63
2018-11-10T05:49:20.462Z,32.33
2018-11-10T05:51:24.305Z,35.03
2018-11-10T05:53:28.045Z,35.83
2018-11-10T05:55:31.933Z,37.17
2018-11-10T05:57:35.654Z,36.77
2018-11-10T05:59:39.603Z,35.27
2018-11-10T06:01:43.436Z,30.90
2018-11-10T06:03:47.149Z,30.60
2018-11-10T06:05:51.901Z,32.03
2018-11-10T06:07:55.529Z,31.20
2018-11-10T06:09:59.317Z,33.27
2018-11-10T06:12:02.873Z,37.47
2018-11-10T06:14:06.718Z,33.00
2018-11-10T06:16:10.500Z,35.33
2018-11-10T06:18:14.053Z,34.67
2018-11-10T06:20:17.821Z,35.53
2018-11-10T06:22:21.609Z,33.63
2018-11-10T06:24:26.270Z,37.40
2018-11-10T06:26:30.402Z,35.20
2018-11-10T06:28:34.961Z,35.17
2018-11-10T06:30:38.589Z,36.03
2018-11-10T06:32:42.359Z,33.77
2018-11-10T06:34:46.218Z,35.70
2018-11-10T06:36:50.259Z,35.93
2018-11-10T06:38:54.205Z,37.27
2018-11-10T06:40:58.021Z,32.87
2018-11-10T06:43:01.657Z,37.50
2018-11-10T06:45:05.937Z,38.33
2018-11-10T06:47:09.704Z,37.60
2018-11-10T06:49:13.446Z,33.77
2018-11-10T06:51:17.097Z,38.43
2018-11-10T06:53:20.913Z,37.73
2018-11-10T06:55:24.671Z,38.50
2018-11-10T06:57:28.521Z,37.87
2018-11-10T06:59:32.283Z,37.97
2018-11-10T07:01:36.141Z,38.60
2018-11-10T07:03:39.936Z,39.70
2018-11-10T07:05:43.757Z,40.80
2018-11-10T07:07:47.485Z,40.97
2018-11-10T07:09:51.186Z,36.50
2018-11-10T07:11:55.188Z,41.47
2018-11-10T07:13:58.885Z,43.93
2018-11-10T07:16:02.534Z,38.97
2018-11-10T07:18:06.440Z,39.70
2018-11-10T07:20:10.014Z,35.97
2018-11-10T07:22:13.613Z,38.33
2018-11-10T07:24:17.524Z,41.13
2018-11-10T07:26:21.250Z,37.90
2018-11-10T07:28:24.853Z,40.57
2018-11-10T07:30:28.509Z,37.30
2018-11-10T07:32:32.250Z,35.97
2018-11-10T07:34:35.953Z,36.57
2018-11-10T07:36:39.709Z,36.23
2018-11-10T07:38:43.494Z,34.63
2018-11-10T07:40:47.213Z,38.27
2018-11-10T07:44:15.397Z,38.57
2018-11-10T07:46:19.146Z,37.97
2018-11-10T07:48:22.877Z,37.53
2018-11-10T07:50:26.554Z,39.73
2018-11-10T07:52:30.217Z,36.03
2018-11-10T07:54:34.025Z,36.30
2018-11-10T07:56:37.915Z,39.50
2018-11-10T07:58:41.747Z,37.40
2018-11-10T08:00:45.453Z,39.50
2018-11-10T08:02:49.463Z,35.80
2018-11-10T08:04:53.154Z,37.80
2018-11-10T08:06:56.839Z,39.93
2018-11-10T08:09:00.605Z,39.37
2018-11-10T08:11:04.325Z,37.83
2018-11-10T08:13:08.143Z,38.40
2018-11-10T08:15:16.061Z,39.90
2018-11-10T08:17:19.833Z,40.00
2018-11-10T08:19:23.617Z,37.47
2018-11-10T08:21:27.641Z,39.87
2018-11-10T08:23:32.082Z,41.17
2018-11-10T08:25:35.895Z,39.70
2018-11-10T08:27:40.563Z,37.57
2018-11-10T08:29:44.307Z,41.63
2018-11-10T08:31:48.120Z,40.40
2018-11-10T08:33:51.873Z,41.47
2018-11-10T08:35:55.541Z,38.70
2018-11-10T08:37:59.318Z,41.10
2018-11-10T08:40:03.091Z,38.43
2018-11-10T08:42:06.809Z,41.00
2018-11-10T08:44:10.575Z,43.37
2018-11-10T08:46:14.338Z,42.73
2018-11-10T08:48:18.078Z,35.63
2018-11-10T08:50:21.885Z,36.07
2018-11-10T08:52:25.805Z,38.23
2018-11-10T08:54:29.545Z,40.83
2018-11-10T08:56:33.402Z,36.70
2018-11-10T08:58:37.308Z,43.10
2018-11-10T09:00:41.729Z,42.40
2018-11-10T09:02:45.641Z,40.17
2018-11-10T09:04:49.369Z,40.70
2018-11-10T09:06:53.203Z,38.20
2018-11-10T09:08:56.952Z,41.03
2018-11-10T09:11:00.699Z,40.33
2018-11-10T09:13:04.430Z,38.00
2018-11-10T09:15:10.176Z,40.20
2018-11-10T09:17:13.831Z,42.07
2018-11-10T09:19:17.640Z,38.83
2018-11-10T09:21:21.501Z,40.27
2018-11-10T09:23:25.057Z,38.70
2018-11-10T09:25:28.909Z,40.17
2018-11-10T09:27:32.693Z,36.10
2018-11-10T09:29:36.877Z,43.03
2018-11-10T09:31:40.523Z,37.77
2018-11-10T09:33:44.195Z,42.87
2018-11-10T09:35:47.975Z,39.23
2018-11-10T09:37:51.714Z,34.47
2018-11-10T09:39:55.546Z,35.17
2018-11-10T09:41:59.378Z,39.63
2018-11-10T09:44:03.377Z,38.70
2018-11-10T09:46:07.337Z,37.87
2018-11-10T09:48:11.014Z,38.60
2018-11-10T09:50:18.462Z,36.90
2018-11-10T09:52:22.182Z,35.97
2018-11-10T09:54:26.104Z,36.43
2018-11-10T09:56:29.726Z,35.97
2018-11-10T09:58:33.499Z,37.73
2018-11-10T10:00:37.393Z,38.23
2018-11-10T10:02:41.688Z,33.27
2018-11-10T10:04:45.166Z,35.70
2018-11-10T10:06:48.998Z,37.73
2018-11-10T10:08:52.934Z,35.33
2018-11-10T10:10:56.543Z,32.20
2018-11-10T10:13:00.265Z,37.93
2018-11-10T10:15:04.217Z,35.20
2018-11-10T10:17:07.989Z,35.10
2018-11-10T10:19:11.771Z,32.43
2018-11-10T10:21:15.663Z,36.90
2018-11-10T10:23:19.317Z,35.27
2018-11-10T10:25:23.706Z,30.17
2018-11-10T10:27:27.425Z,36.03
2018-11-10T10:29:31.146Z,35.37
2018-11-10T10:31:35.030Z,36.93
2018-11-10T10:33:39.723Z,32.73
2018-11-10T10:35:43.370Z,35.07
2018-11-10T10:37:47.925Z,37.47
2018-11-10T10:39:51.690Z,27.43
2018-11-10T10:41:55.461Z,36.17
2018-11-10T10:43:59.256Z,23.60
2018-11-10T10:46:03.053Z,35.37
2018-11-10T10:48:06.825Z,31.97
2018-11-10T10:50:12.335Z,33.87
2018-11-10T10:52:16.038Z,31.57
2018-11-10T10:54:19.809Z,33.50
2018-11-10T10:56:23.517Z,31.93
2018-11-10T10:58:27.249Z,35.07
2018-11-10T11:00:36.136Z,32.70
2018-11-10T11:02:45.115Z,28.33
2018-11-10T11:05:09.080Z,28.93
2018-11-10T11:07:12.898Z,30.40
2018-11-10T11:09:16.661Z,24.40
2018-11-10T11:11:20.341Z,30.10
2018-11-10T11:13:24.665Z,31.90
2018-11-10T11:15:28.533Z,32.57
2018-11-10T11:17:32.085Z,30.47
2018-11-10T11:19:35.721Z,33.90
2018-11-10T11:21:39.600Z,31.57
2018-11-10T11:23:43.438Z,31.10
2018-11-10T11:25:47.089Z,31.23
2018-11-10T11:27:50.917Z,29.33
2018-11-10T11:29:54.621Z,32.83
2018-11-10T11:31:58.347Z,30.70
2018-11-10T11:34:02.215Z,30.23
2018-11-10T11:36:05.922Z,28.73
2018-11-10T11:38:09.717Z,24.77
2018-11-10T11:40:14.524Z,28.13
2018-11-10T11:42:19.175Z,30.03
2018-11-10T11:44:22.930Z,30.30
2018-11-10T11:46:26.822Z,30.97
2018-11-10T11:48:30.546Z,30.17
2018-11-10T11:50:34.385Z,26.40
2018-11-10T11:52:38.582Z,28.50
2018-11-10T11:54:43.061Z,24.40
2018-11-10T11:56:46.858Z,26.90
2018-11-10T11:58:50.589Z,28.97
2018-11-10T12:00:54.281Z,29.80
2018-11-10T12:02:58.015Z,30.23
2018-11-10T12:05:01.802Z,29.73
2018-11-10T12:07:05.882Z,27.43
2018-11-10T12:09:10.783Z,30.43
2018-11-10T12:12:40.193Z,28.97
2018-11-10T12:14:44.523Z,32.20
2018-11-10T12:16:48.309Z,28.27
2018-11-10T12:18:51.949Z,32.30
2018-11-10T12:20:55.657Z,30.13
2018-11-10T12:22:59.322Z,32.60
2018-11-10T12:25:02.969Z,33.13
2018-11-10T12:27:06.929Z,29.93
2018-11-10T12:29:10.601Z,31.10
2018-11-10T12:32:39.014Z,33.90
2018-11-10T12:34:42.742Z,33.53
2018-11-10T12:36:46.620Z,33.50
2018-11-10T12:38:50.476Z,36.80
2018-11-10T12:40:54.226Z,34.63
2018-11-10T12:42:57.953Z,34.97
2018-11-10T12:45:01.732Z,32.47
2018-11-10T12:47:05.547Z,25.23
2018-11-10T12:49:10.252Z,31.40
2018-11-10T12:51:13.949Z,33.13
2018-11-10T12:53:17.589Z,34.53
2018-11-10T12:55:21.963Z,31.93
2018-11-10T12:57:25.790Z,33.03
2018-11-10T12:59:29.573Z,32.17
2018-11-10T13:01:33.385Z,32.93
2018-11-10T13:03:37.169Z,32.73
2018-11-10T13:05:41.142Z,32.80
2018-11-10T13:07:46.021Z,36.33
2018-11-10T13:09:49.793Z,33.43
2018-11-10T13:11:53.592Z,30.53
2018-11-10T13:13:57.197Z,28.67
2018-11-10T13:16:00.837Z,32.90
2018-11-10T13:18:04.685Z,32.50
2018-11-10T13:20:10.536Z,29.13
2018-11-10T13:22:14.435Z,32.70
2018-11-10T13:24:18.167Z,33.03
2018-11-10T13:26:21.802Z,30.87
2018-11-10T13:28:25.729Z,32.23
2018-11-10T13:30:30.029Z,32.17
2018-11-10T13:32:33.801Z,32.63
2018-11-10T13:34:37.620Z,34.13
2018-11-10T13:36:41.409Z,33.70
2018-11-10T13:38:45.192Z,30.93
2018-11-10T13:40:49.519Z,31.10
2018-11-10T13:42:53.193Z,32.53
2018-11-10T13:44:57.058Z,30.60
2018-11-10T13:47:00.971Z,32.20
2018-11-10T13:49:04.669Z,33.17
2018-11-10T13:51:09.454Z,32.77
2018-11-10T13:53:13.069Z,26.97
2018-11-10T13:55:16.835Z,31.63
2018-11-10T13:57:20.966Z,28.43
2018-11-10T13:59:24.816Z,31.80
2018-11-10T14:01:28.968Z,30.23
2018-11-10T14:03:32.798Z,30.63
2018-11-10T14:05:36.598Z,28.93
2018-11-10T14:07:40.541Z,27.37
2018-11-10T14:09:45.080Z,31.13
2018-11-10T14:11:48.961Z,22.43
2018-11-10T14:13:52.654Z,30.20
2018-11-10T14:15:57.066Z,32.63
2018-11-10T14:18:01.129Z,33.57
2018-11-10T14:20:06.737Z,34.13
2018-11-10T14:22:10.795Z,32.73
2018-11-10T14:24:14.594Z,32.37
2018-11-10T14:26:18.393Z,33.60
2018-11-10T14:28:22.249Z,36.17
2018-11-10T14:30:26.013Z,35.03
2018-11-10T14:32:29.787Z,31.47
2018-11-10T14:34:33.605Z,34.00
2018-11-10T14:36:37.366Z,33.27
2018-11-10T14:38:41.077Z,36.13
2018-11-10T14:40:44.860Z,26.40
2018-11-10T14:42:49.797Z,34.40
2018-11-10T14:44:53.522Z,35.23
2018-11-10T14:46:57.249Z,33.97
2018-11-10T14:49:01.150Z,29.50
2018-11-10T14:51:05.289Z,35.97
2018-11-10T14:53:09.196Z,33.23
2018-11-10T14:55:13.364Z,31.80
2018-11-10T14:57:17.078Z,31.27
2018-11-10T14:59:20.831Z,33.93
2018-11-10T15:01:24.689Z,33.67
2018-11-10T15:03:28.469Z,32.43
2018-11-10T15:05:32.174Z,31.20
2018-11-10T15:07:36.005Z,33.37
2018-11-10T15:09:40.005Z,32.50
2018-11-10T15:11:44.042Z,28.50
2018-11-10T15:13:47.758Z,31.50
2018-11-10T15:15:51.638Z,25.73
2018-11-10T15:17:56.274Z,32.93
2018-11-10T15:19:59.894Z,31.53
2018-11-10T15:22:03.793Z,33.23
2018-11-10T15:24:07.663Z,23.50
2018-11-10T15:26:11.435Z,33.23
2018-11-10T15:28:15.165Z,22.90
2018-11-10T15:30:20.290Z,29.80
2018-11-10T15:32:24.101Z,28.23
2018-11-10T15:34:27.721Z,34.67
2018-11-10T15:36:31.445Z,34.63
2018-11-10T15:38:35.982Z,31.63
2018-11-10T15:40:39.657Z,33.30
2018-11-10T15:42:43.537Z,34.23
2018-11-10T15:44:48.151Z,34.63
2018-11-10T15:46:51.973Z,33.33
2018-11-10T15:48:55.705Z,34.37
2018-11-10T15:50:59.385Z,33.37
2018-11-10T15:53:03.225Z,26.83
2018-11-10T15:55:07.966Z,30.47
2018-11-10T15:57:11.845Z,33.20
2018-11-10T15:59:15.509Z,30.43
2018-11-10T16:01:19.250Z,33.13
2018-11-10T16:03:23.143Z,32.93
2018-11-10T16:05:26.929Z,31.97
2018-11-10T16:07:30.701Z,32.87
2018-11-10T16:09:34.662Z,31.13
2018-11-10T16:11:38.538Z,36.10
2018-11-10T16:13:42.253Z,29.70
2018-11-10T16:15:46.357Z,28.40
2018-11-10T16:17:50.257Z,32.63
2018-11-10T16:19:53.985Z,31.97
2018-11-10T16:21:57.681Z,32.33
2018-11-10T16:24:01.354Z,33.10
2018-11-10T16:26:05.861Z,24.77
2018-11-10T16:28:09.604Z,33.17
2018-11-10T16:30:14.665Z,31.20
2018-11-10T16:32:18.335Z,23.23
2018-11-10T16:34:22.068Z,34.10
2018-11-10T16:36:25.793Z,25.63
2018-11-10T16:38:29.558Z,32.03
2018-11-10T16:40:33.305Z,26.87
2018-11-10T16:42:37.310Z,31.50
2018-11-10T16:44:40.963Z,29.57
2018-11-10T16:46:44.706Z,28.50
2018-11-10T16:48:48.377Z,34.07
2018-11-10T16:50:52.050Z,33.90
2018-11-10T16:52:55.837Z,32.10
2018-11-10T16:54:59.748Z,32.13
2018-11-10T16:57:03.529Z,31.13
2018-11-10T16:59:07.930Z,34.13
2018-11-10T17:01:11.622Z,32.70
2018-11-10T17:03:15.286Z,35.30
2018-11-10T17:05:19.077Z,32.07
2018-11-10T17:07:22.889Z,31.43
2018-11-10T17:09:26.580Z,30.27
2018-11-10T17:11:30.225Z,30.57
2018-11-10T17:13:34.159Z,30.97
2018-11-10T17:15:37.933Z,32.33
2018-11-10T17:17:41.634Z,34.73
2018-11-10T17:19:45.470Z,34.53
2018-11-10T17:21:49.246Z,29.93
2018-11-10T17:23:52.925Z,31.30
2018-11-10T17:25:56.618Z,34.33
2018-11-10T17:28:00.341Z,32.90
2018-11-10T17:30:04.203Z,33.83
2018-11-10T17:32:07.996Z,33.47
2018-11-10T17:34:11.734Z,35.40
2018-11-10T17:36:15.403Z,27.83
2018-11-10T17:38:19.189Z,33.97
2018-11-10T17:40:22.942Z,35.07
2018-11-10T17:42:27.548Z,29.17
2018-11-10T17:44:31.462Z,35.20
2018-11-10T17:46:35.233Z,35.13
2018-11-10T17:48:38.890Z,36.93
2018-11-10T17:50:42.645Z,38.67
2018-11-10T17:52:46.598Z,36.03
2018-11-10T17:54:50.558Z,29.27
2018-11-10T17:56:54.209Z,36.73
2018-11-10T17:58:57.919Z,38.23
2018-11-10T18:01:01.724Z,29.10
2018-11-10T18:03:05.723Z,36.37
2018-11-10T18:05:11.601Z,35.43
2018-11-10T18:07:15.392Z,34.93
2018-11-10T18:09:19.057Z,34.30
2018-11-10T18:11:22.821Z,38.10
2018-11-10T18:13:26.738Z,40.50
2018-11-10T18:15:31.590Z,38.73
2018-11-10T18:17:35.362Z,39.40
2018-11-10T18:19:39.107Z,40.23
2018-11-10T18:21:43.146Z,40.10
2018-11-10T18:23:46.895Z,39.37
2018-11-10T18:25:50.610Z,40.20
2018-11-10T18:27:54.317Z,36.53
2018-11-10T18:29:58.097Z,40.70
2018-11-10T18:32:01.857Z,33.37
2018-11-10T18:34:05.858Z,35.47
2018-11-10T18:36:09.656Z,35.47
2018-11-10T18:38:14.317Z,38.67
2018-11-10T18:40:17.998Z,37.97
2018-11-10T18:42:21.854Z,38.57
2018-11-10T18:44:25.694Z,39.13
2018-11-10T18:46:29.428Z,38.23
2018-11-10T18:48:33.138Z,37.60
2018-11-10T18:50:36.877Z,36.00
2018-11-10T18:52:41.441Z,37.43
2018-11-10T18:54:45.214Z,37.70
2018-11-10T18:56:49.030Z,36.60
2018-11-10T18:58:52.722Z,35.87
2018-11-10T19:00:56.414Z,37.57
2018-11-10T19:03:00.175Z,37.87
2018-11-10T19:05:04.703Z,39.17
2018-11-10T19:07:08.582Z,36.57
2018-11-10T19:09:13.830Z,37.23
2018-11-10T19:11:17.453Z,37.33
2018-11-10T19:13:21.152Z,33.63
2018-11-10T19:15:24.822Z,36.00
2018-11-10T19:17:28.580Z,36.47
2018-11-10T19:19:33.107Z,35.10
2018-11-10T19:21:36.787Z,34.90
2018-11-10T19:23:40.482Z,35.87
2018-11-10T19:25:44.861Z,37.80
2018-11-10T19:27:48.757Z,38.37
2018-11-10T19:29:53.409Z,34.53
2018-11-10T19:31:57.844Z,34.70
2018-11-10T19:34:01.573Z,34.60
2018-11-10T19:36:05.566Z,38.03
2018-11-10T19:38:09.690Z,27.13
2018-11-10T19:40:13.521Z,34.77
2018-11-10T19:42:17.246Z,33.77
2018-11-10T19:44:20.936Z,37.27
2018-11-10T19:46:24.735Z,37.83
2018-11-10T19:48:29.917Z,36.37
2018-11-10T19:50:33.853Z,37.70
2018-11-10T19:52:37.644Z,33.63
2018-11-10T19:54:41.464Z,37.53
2018-11-10T19:56:45.155Z,38.93
2018-11-10T19:58:48.825Z,34.20
2018-11-10T20:00:52.522Z,35.73
2018-11-10T20:02:56.368Z,39.97
2018-11-10T20:05:00.175Z,37.47
2018-11-10T20:07:03.883Z,37.47
2018-11-10T20:09:10.576Z,38.93
2018-11-10T20:11:14.441Z,32.73
2018-11-10T20:13:18.123Z,38.10
2018-11-10T20:15:21.739Z,35.67
2018-11-10T20:17:25.527Z,33.67
2018-11-10T20:19:29.344Z,36.67
2018-11-10T20:21:33.053Z,40.87
2018-11-10T20:23:36.961Z,39.30
2018-11-10T20:25:40.631Z,40.50
2018-11-10T20:27:44.228Z,40.00
2018-11-10T20:29:48.373Z,39.37
2018-11-10T20:31:52.018Z,39.77
2018-11-10T20:33:57.058Z,43.60
2018-11-10T20:36:00.786Z,40.87
2018-11-10T20:38:04.753Z,40.37
2018-11-10T20:40:10.030Z,44.67
2018-11-10T20:42:13.906Z,41.53
2018-11-10T20:44:18.383Z,44.77
2018-11-10T20:46:22.265Z,42.27
2018-11-10T20:48:25.956Z,41.77
2018-11-10T20:50:29.713Z,39.20
2018-11-10T20:52:35.317Z,42.90
2018-11-10T20:54:39.585Z,42.20
2018-11-10T20:56:43.215Z,38.87
2018-11-10T20:58:46.949Z,43.20
2018-11-10T21:00:50.797Z,42.73
2018-11-10T21:02:54.504Z,44.27
2018-11-10T21:04:58.657Z,42.67
2018-11-10T21:07:02.311Z,43.00
2018-11-10T21:09:08.753Z,43.97
2018-11-10T21:11:12.604Z,42.77
2018-11-10T21:13:16.405Z,42.13
2018-11-10T21:15:20.798Z,41.60
2018-11-10T21:17:24.454Z,41.83
2018-11-10T21:19:28.241Z,42.53
2018-11-10T21:21:32.167Z,41.63
2018-11-10T21:23:35.965Z,42.37
2018-11-10T21:25:39.684Z,44.03
2018-11-10T21:27:43.734Z,42.40
2018-11-10T21:29:47.581Z,44.63
2018-11-10T21:31:51.246Z,43.17
2018-11-10T21:33:54.943Z,45.73
2018-11-10T21:35:58.597Z,41.80
2018-11-10T21:38:02.261Z,43.63
2018-11-10T21:40:12.081Z,44.03
2018-11-10T21:42:15.810Z,46.57
2018-11-10T21:44:19.439Z,43.20
2018-11-10T21:46:23.201Z,44.83
2018-11-10T21:48:26.912Z,42.90
2018-11-10T21:50:30.586Z,43.97
2018-11-10T21:52:34.339Z,43.93
2018-11-10T21:54:38.137Z,44.53
2018-11-10T21:56:41.905Z,41.83
2018-11-10T21:58:45.754Z,47.90
2018-11-10T22:00:50.164Z,44.57
2018-11-10T22:02:53.986Z,46.77
2018-11-10T22:04:57.665Z,46.07
2018-11-10T22:07:01.809Z,45.43
2018-11-10T22:09:09.223Z,46.23
2018-11-10T22:11:12.822Z,44.47
2018-11-10T22:13:16.952Z,44.43
2018-11-10T22:15:22.227Z,44.17
2018-11-10T22:17:26.869Z,44.20
2018-11-10T22:19:30.606Z,44.53
2018-11-10T22:21:34.545Z,47.20
2018-11-10T22:23:38.267Z,45.73
2018-11-10T22:25:41.861Z,48.40
2018-11-10T22:27:47.161Z,46.37
2018-11-10T22:29:50.814Z,42.73
2018-11-10T22:31:54.488Z,44.40
2018-11-10T22:33:58.169Z,45.03
2018-11-10T22:36:01.842Z,44.13
2018-11-10T22:38:05.644Z,49.60
2018-11-10T22:40:11.485Z,47.10
2018-11-10T22:42:16.197Z,44.40
2018-11-10T22:44:19.866Z,49.27
2018-11-10T22:46:23.629Z,45.57
2018-11-10T22:48:27.333Z,45.60
2018-11-10T22:50:31.238Z,40.10
2018-11-10T22:52:35.025Z,47.30
2018-11-10T22:54:38.761Z,46.83
2018-11-10T22:56:42.615Z,47.23
2018-11-10T22:58:46.326Z,44.60
2018-11-10T23:00:55.217Z,46.93
2018-11-10T23:03:00.218Z,46.57
2018-11-10T23:05:04.567Z,45.33
2018-11-10T23:07:08.324Z,43.93
2018-11-10T23:09:11.917Z,43.07
2018-11-10T23:11:15.628Z,47.43
2018-11-10T23:13:19.354Z,46.03
2018-11-10T23:15:23.010Z,47.33
2018-11-10T23:17:26.845Z,49.20
2018-11-10T23:19:30.539Z,46.90
2018-11-10T23:21:35.159Z,48.87
2018-11-10T23:23:38.951Z,46.90
2018-11-10T23:25:42.498Z,45.00
2018-11-10T23:27:46.234Z,50.17
2018-11-10T23:29:49.929Z,49.67
2018-11-10T23:31:54.107Z,48.00
2018-11-10T23:33:57.858Z,49.87
2018-11-10T23:36:01.706Z,52.80
2018-11-10T23:38:05.578Z,50.80
2018-11-10T23:40:11.344Z,51.83
2018-11-10T23:42:15.228Z,53.20
2018-11-10T23:44:18.857Z,48.70
2018-11-10T23:46:22.545Z,51.70
2018-11-10T23:48:26.305Z,48.77
2018-11-10T23:50:29.949Z,51.03
2018-11-10T23:52:33.833Z,53.80
2018-11-10T23:54:37.554Z,50.77
2018-11-10T23:56:41.299Z,51.93
2018-11-10T23:58:45.074Z,51.97
